Time;durP1;ratioP1;P1;durP2;ratioP2;P2;SDS_P1;SDS_P2;PMS_P1;PMS_P2;Temp;Humidity;BMP_temperature;BMP_pressure;BME280_temperature;BME280_humidity;BME280_pressure;Samples;Min_cycle;Max_cycle;Signal;HPM_P1;HPM_P2
2023/09/20 00:02:18;;;;;;;;;;;15.50;99.90;;;;;;5057511;28;19912;-75
2023/09/20 00:04:44;;;;;;;;;;;15.50;99.90;;;;;;5057228;28;20046;-75
2023/09/20 00:07:10;;;;;;;;;;;15.50;99.90;;;;;;5057305;28;20464;-75
2023/09/20 00:09:36;;;;;;;;;;;15.50;99.90;;;;;;5056299;28;20381;-75
2023/09/20 00:12:01;;;;;;;;;;;15.50;99.90;;;;;;5057141;28;19920;-75
2023/09/20 00:14:29;;;;;;;;;;;15.50;99.90;;;;;;5056188;28;19955;-75
2023/09/20 00:16:54;;;;;;;;;;;15.50;99.90;;;;;;5056990;28;19909;-75
2023/09/20 00:19:20;;;;;;;;;;;15.50;99.90;;;;;;5057368;28;19919;-75
2023/09/20 00:21:49;;;;;;;;;;;15.50;99.90;;;;;;5056759;28;19908;-75
2023/09/20 00:24:14;;;;;;;;;;;15.50;99.90;;;;;;5057073;28;19913;-75
2023/09/20 00:26:40;;;;;;;;;;;15.50;99.90;;;;;;5056785;28;19931;-75
2023/09/20 00:29:05;;;;;;;;;;;15.50;99.90;;;;;;5055639;28;19913;-75
2023/09/20 00:31:32;;;;;;;;;;;15.50;99.90;;;;;;5056872;28;19915;-75
2023/09/20 00:33:57;;;;;;;;;;;15.50;99.90;;;;;;5055622;28;19916;-75
2023/09/20 00:36:23;;;;;;;;;;;15.50;99.90;;;;;;5056427;28;19913;-75
2023/09/20 00:38:49;;;;;;;;;;;15.50;99.90;;;;;;5056988;28;19908;-76
2023/09/20 00:41:15;;;;;;;;;;;15.50;99.90;;;;;;5056601;28;20411;-75
2023/09/20 00:43:41;;;;;;;;;;;15.50;99.90;;;;;;5055311;28;19916;-75
2023/09/20 00:46:07;;;;;;;;;;;15.50;99.90;;;;;;5056446;28;19913;-75
2023/09/20 00:48:33;;;;;;;;;;;15.50;99.90;;;;;;5056703;28;20670;-75
2023/09/20 00:50:59;;;;;;;;;;;15.40;99.90;;;;;;5071463;28;19964;-75
2023/09/20 00:53:25;;;;;;;;;;;15.40;99.90;;;;;;5056291;28;19912;-75
2023/09/20 00:55:51;;;;;;;;;;;15.30;99.90;;;;;;5056486;28;20004;-75
2023/09/20 00:58:17;;;;;;;;;;;15.30;99.90;;;;;;5056675;28;19948;-75
2023/09/20 01:00:43;;;;;;;;;;;15.20;99.90;;;;;;5056375;28;19935;-75
2023/09/20 01:03:10;;;;;;;;;;;15.20;99.90;;;;;;5056456;28;20261;-75
2023/09/20 01:05:39;;;;;;;;;;;15.20;99.90;;;;;;5070539;28;19936;-75
2023/09/20 01:08:08;;;;;;;;;;;15.20;99.90;;;;;;5071473;28;20003;-75
2023/09/20 01:10:36;;;;;;;;;;;15.20;99.90;;;;;;5056182;28;19913;-75
2023/09/20 01:13:04;;;;;;;;;;;15.10;99.90;;;;;;5055040;28;19912;-75
2023/09/20 01:15:30;;;;;;;;;;;15.10;99.90;;;;;;5055456;28;19913;-75
2023/09/20 01:17:57;;;;;;;;;;;15.00;99.90;;;;;;5056127;28;19909;-75
2023/09/20 01:20:24;;;;;;;;;;;15.00;99.90;;;;;;5055783;28;19931;-75
2023/09/20 01:22:54;;;;;;;;;;;14.90;99.90;;;;;;5056099;28;19919;-75
2023/09/20 01:25:29;;;;;;;;;;;14.90;99.90;;;;;;5043653;28;19913;-75
2023/09/20 01:27:56;;;;;;;;;;;14.90;99.90;;;;;;5071014;28;19931;-75
2023/09/20 01:30:26;;;;;;;;;;;14.90;99.90;;;;;;5054617;28;19921;-75
2023/09/20 01:32:53;;;;;;;;;;;14.90;99.90;;;;;;5054717;28;19912;-75
2023/09/20 01:35:19;;;;;;;;;;;14.80;99.90;;;;;;5055710;28;19912;-75
2023/09/20 01:37:44;;;;;;;;;;;14.80;99.90;;;;;;5055806;28;19920;-75
2023/09/20 01:40:16;;;;;;;;;;;14.80;99.90;;;;;;5088109;28;19912;-75
2023/09/20 01:42:45;;;;;;;;;;;14.80;99.90;;;;;;5055746;28;19913;-75
2023/09/20 01:45:16;;;;;;;;;;;14.80;99.90;;;;;;5055903;28;20423;-75
2023/09/20 01:47:45;;;;;;;;;;;14.80;99.90;;;;;;5055866;28;19919;-75
2023/09/20 01:50:12;;;;;;;;;;;14.80;99.90;;;;;;5055451;28;20035;-75
2023/09/20 01:52:38;;;;;;;;;;;14.70;99.90;;;;;;5055701;28;20007;-75
2023/09/20 01:55:13;;;;;;;;;;;14.70;99.90;;;;;;5087845;28;19948;-75
2023/09/20 01:57:39;;;;;;;;;;;14.70;99.90;;;;;;5055849;28;19913;-75
2023/09/20 02:00:11;;;;;;;;;;;14.70;99.90;;;;;;5055780;28;19919;-75
2023/09/20 02:02:37;;;;;;;;;;;14.70;99.90;;;;;;5052474;28;19912;-75
2023/09/20 02:05:03;;;;;;;;;;;14.70;99.90;;;;;;5087277;28;19916;-75
2023/09/20 02:07:29;;;;;;;;;;;14.60;99.90;;;;;;5055437;28;19976;-75
2023/09/20 02:09:54;;;;;;;;;;;14.70;99.90;;;;;;5054055;28;19919;-75
2023/09/20 02:12:20;;;;;;;;;;;14.60;99.90;;;;;;5055557;28;19913;-75
2023/09/20 02:14:46;;;;;;;;;;;14.50;99.90;;;;;;5055771;28;19917;-75
2023/09/20 02:17:12;;;;;;;;;;;14.50;99.90;;;;;;5088216;28;19909;-76
2023/09/20 02:19:38;;;;;;;;;;;14.50;99.90;;;;;;5074646;28;20266;-75
2023/09/20 02:22:04;;;;;;;;;;;14.50;99.90;;;;;;5059345;28;20292;-75
2023/09/20 02:24:29;;;;;;;;;;;14.50;99.90;;;;;;5059554;28;19952;-75
2023/09/20 02:26:55;;;;;;;;;;;14.40;99.90;;;;;;5091329;28;19979;-76
2023/09/20 02:29:23;;;;;;;;;;;14.40;99.90;;;;;;5059214;28;19920;-76
2023/09/20 02:31:48;;;;;;;;;;;14.40;99.90;;;;;;5059123;28;19916;-76
2023/09/20 02:34:14;;;;;;;;;;;14.40;99.90;;;;;;5074608;28;19912;-76
2023/09/20 02:36:40;;;;;;;;;;;14.40;99.90;;;;;;5059046;28;19939;-76
2023/09/20 02:39:06;;;;;;;;;;;14.40;99.90;;;;;;5059129;28;19909;-76
2023/09/20 02:41:31;;;;;;;;;;;14.30;99.90;;;;;;5059366;28;19908;-76
2023/09/20 02:43:57;;;;;;;;;;;14.30;99.90;;;;;;5058841;28;19928;-76
2023/09/20 02:46:22;;;;;;;;;;;14.20;99.90;;;;;;5057405;28;19974;-76
2023/09/20 02:48:49;;;;;;;;;;;14.20;99.90;;;;;;5059117;28;19974;-76
2023/09/20 02:51:16;;;;;;;;;;;14.20;99.90;;;;;;5058747;28;19912;-75
2023/09/20 02:53:41;;;;;;;;;;;14.10;99.90;;;;;;5057479;28;19978;-76
2023/09/20 02:56:08;;;;;;;;;;;14.10;99.90;;;;;;5058898;28;19913;-75
2023/09/20 02:58:36;;;;;;;;;;;14.00;99.90;;;;;;5058772;28;19909;-76
2023/09/20 03:01:02;;;;;;;;;;;14.00;99.90;;;;;;5058599;28;19909;-76
2023/09/20 03:03:28;;;;;;;;;;;14.00;99.90;;;;;;5058737;28;20439;-76
2023/09/20 03:05:53;;;;;;;;;;;14.00;99.90;;;;;;5076446;28;19939;-76
2023/09/20 03:08:19;;;;;;;;;;;14.00;99.90;;;;;;5056974;28;19987;-76
2023/09/20 03:10:44;;;;;;;;;;;14.00;99.90;;;;;;5058086;28;19996;-76
2023/09/20 03:13:16;;;;;;;;;;;14.10;99.90;;;;;;5058516;28;19935;-75
2023/09/20 03:15:43;;;;;;;;;;;14.10;99.90;;;;;;5058238;28;19916;-76
2023/09/20 03:18:09;;;;;;;;;;;14.10;99.90;;;;;;5058380;28;20349;-76
2023/09/20 03:20:35;;;;;;;;;;;14.10;99.90;;;;;;5056385;28;20038;-75
2023/09/20 03:23:03;;;;;;;;;;;14.10;99.90;;;;;;5058365;28;20042;-75
2023/09/20 03:25:29;;;;;;;;;;;14.20;99.90;;;;;;5056770;28;19936;-75
2023/09/20 03:27:55;;;;;;;;;;;14.10;99.90;;;;;;5058148;28;20339;-76
2023/09/20 03:30:20;;;;;;;;;;;14.10;99.90;;;;;;5057087;28;19913;-76
2023/09/20 03:32:46;;;;;;;;;;;14.20;99.90;;;;;;5058108;28;19919;-75
2023/09/20 03:35:12;;;;;;;;;;;14.10;99.90;;;;;;5057665;28;19909;-75
2023/09/20 03:37:39;;;;;;;;;;;14.10;99.90;;;;;;5057969;28;19963;-75
2023/09/20 03:40:06;;;;;;;;;;;14.10;99.90;;;;;;5057875;28;20436;-75
2023/09/20 03:42:32;;;;;;;;;;;14.10;99.90;;;;;;5057926;28;20384;-75
2023/09/20 03:44:58;;;;;;;;;;;14.10;99.90;;;;;;5089782;28;20447;-76
2023/09/20 03:47:28;;;;;;;;;;;14.10;99.90;;;;;;5057988;28;19913;-75
2023/09/20 03:49:53;;;;;;;;;;;14.00;99.90;;;;;;5055972;28;19913;-75
2023/09/20 03:52:19;;;;;;;;;;;14.00;99.90;;;;;;5057781;28;20415;-75
2023/09/20 03:54:48;;;;;;;;;;;14.00;99.90;;;;;;5057680;28;19966;-75
2023/09/20 03:57:15;;;;;;;;;;;14.00;99.90;;;;;;5073251;28;19908;-75
2023/09/20 03:59:41;;;;;;;;;;;14.00;99.90;;;;;;5057555;28;19915;-75
2023/09/20 04:02:13;;;;;;;;;;;14.00;99.90;;;;;;5072924;28;20384;-74
2023/09/20 04:04:40;;;;;;;;;;;14.00;99.90;;;;;;5048199;28;19916;-75
2023/09/20 04:07:06;;;;;;;;;;;14.00;99.90;;;;;;5057196;28;19916;-75
2023/09/20 04:09:32;;;;;;;;;;;14.00;99.90;;;;;;5072806;28;19913;-75
2023/09/20 04:11:59;;;;;;;;;;;14.00;99.90;;;;;;5057499;28;19920;-75
2023/09/20 04:14:25;;;;;;;;;;;14.00;99.90;;;;;;5057737;28;19951;-76
2023/09/20 04:16:52;;;;;;;;;;;14.00;99.90;;;;;;5057576;28;19916;-76
2023/09/20 04:19:21;;;;;;;;;;;13.90;99.90;;;;;;5058473;28;19920;-77
2023/09/20 04:21:47;;;;;;;;;;;13.90;99.90;;;;;;5057880;28;19951;-77
2023/09/20 04:24:13;;;;;;;;;;;13.90;99.90;;;;;;5057495;28;19917;-76
2023/09/20 04:26:38;;;;;;;;;;;13.90;99.90;;;;;;5057012;28;19927;-77
2023/09/20 04:29:04;;;;;;;;;;;13.90;99.90;;;;;;5057673;28;19917;-77
2023/09/20 04:31:32;;;;;;;;;;;13.90;99.90;;;;;;5057806;28;19999;-77
2023/09/20 04:33:57;;;;;;;;;;;13.80;99.90;;;;;;5057401;28;19909;-77
2023/09/20 04:36:23;;;;;;;;;;;13.80;99.90;;;;;;5056495;28;19919;-77
2023/09/20 04:38:49;;;;;;;;;;;13.80;99.90;;;;;;5057051;28;19909;-77
2023/09/20 04:41:15;;;;;;;;;;;13.80;99.90;;;;;;5057605;28;19966;-77
2023/09/20 04:43:40;;;;;;;;;;;13.80;99.90;;;;;;5058693;28;19916;-76
2023/09/20 04:46:06;;;;;;;;;;;13.70;99.90;;;;;;5072959;28;19909;-77
2023/09/20 04:48:33;;;;;;;;;;;13.70;99.90;;;;;;5057863;28;19917;-76
2023/09/20 04:50:59;;;;;;;;;;;13.80;99.90;;;;;;5056540;28;19925;-77
2023/09/20 04:53:25;;;;;;;;;;;13.80;99.90;;;;;;5056711;28;19913;-76
2023/09/20 04:55:51;;;;;;;;;;;13.80;99.90;;;;;;5055408;28;19917;-76
2023/09/20 04:58:20;;;;;;;;;;;13.70;99.90;;;;;;5056812;28;19935;-76
2023/09/20 05:00:46;;;;;;;;;;;13.70;99.90;;;;;;5043477;28;20340;-77
2023/09/20 05:03:15;;;;;;;;;;;13.70;99.90;;;;;;5055728;28;19912;-77
2023/09/20 05:05:41;;;;;;;;;;;13.70;99.90;;;;;;5055894;28;20461;-76
2023/09/20 05:08:08;;;;;;;;;;;13.70;99.90;;;;;;5056399;28;19912;-77
2023/09/20 05:10:34;;;;;;;;;;;13.70;99.90;;;;;;5056056;28;19919;-76
2023/09/20 05:13:00;;;;;;;;;;;13.60;99.90;;;;;;5056416;28;19912;-76
2023/09/20 05:15:25;;;;;;;;;;;13.60;99.90;;;;;;5055976;28;21147;-77
2023/09/20 05:17:51;;;;;;;;;;;13.60;99.90;;;;;;5056296;28;19920;-76
2023/09/20 05:20:16;;;;;;;;;;;13.60;99.90;;;;;;5067853;28;19920;-76
2023/09/20 05:22:42;;;;;;;;;;;13.60;99.90;;;;;;5055172;28;19920;-76
2023/09/20 05:25:08;;;;;;;;;;;13.60;99.90;;;;;;5056035;28;19963;-77
2023/09/20 05:27:34;;;;;;;;;;;13.60;99.90;;;;;;5048893;28;19927;-76
2023/09/20 05:30:00;;;;;;;;;;;13.60;99.90;;;;;;5054704;28;19932;-77
2023/09/20 05:32:26;;;;;;;;;;;13.60;99.90;;;;;;5053500;28;19913;-78
2023/09/20 05:34:51;;;;;;;;;;;13.60;99.90;;;;;;5054815;28;19913;-77
2023/09/20 05:37:17;;;;;;;;;;;13.60;99.90;;;;;;5054627;28;19938;-76
2023/09/20 05:39:48;;;;;;;;;;;13.60;99.90;;;;;;5054745;28;19965;-77
2023/09/20 05:42:17;;;;;;;;;;;13.50;99.90;;;;;;5053586;28;20392;-77
2023/09/20 05:44:43;;;;;;;;;;;13.50;99.90;;;;;;5067404;28;19919;-76
2023/09/20 05:47:08;;;;;;;;;;;13.50;99.90;;;;;;5054381;28;19909;-77
2023/09/20 05:49:34;;;;;;;;;;;13.50;99.90;;;;;;5054750;28;19968;-77
2023/09/20 05:52:00;;;;;;;;;;;13.50;99.90;;;;;;5054119;28;19916;-77
2023/09/20 05:54:25;;;;;;;;;;;13.40;99.90;;;;;;5054801;28;19955;-77
2023/09/20 05:56:51;;;;;;;;;;;13.40;99.90;;;;;;5053895;28;19913;-77
2023/09/20 05:59:17;;;;;;;;;;;13.40;99.90;;;;;;5054677;28;19913;-76
2023/09/20 06:01:42;;;;;;;;;;;13.50;99.90;;;;;;5054665;28;19909;-77
2023/09/20 06:04:11;;;;;;;;;;;13.50;99.90;;;;;;5054719;28;19913;-77
2023/09/20 06:06:37;;;;;;;;;;;13.50;99.90;;;;;;5053480;28;19992;-77
2023/09/20 06:09:03;;;;;;;;;;;13.50;99.90;;;;;;5054323;28;19917;-77
2023/09/20 06:11:28;;;;;;;;;;;13.60;99.90;;;;;;5054664;28;20388;-77
2023/09/20 06:13:54;;;;;;;;;;;13.60;99.90;;;;;;5054324;28;19916;-77
2023/09/20 06:16:20;;;;;;;;;;;13.60;99.90;;;;;;5053709;28;19909;-78
2023/09/20 06:18:49;;;;;;;;;;;13.60;99.90;;;;;;5053666;28;19916;-77
2023/09/20 06:21:17;;;;;;;;;;;13.70;99.90;;;;;;5066605;28;19920;-77
2023/09/20 06:23:46;;;;;;;;;;;13.70;99.90;;;;;;5054380;28;20011;-76
2023/09/20 06:26:12;;;;;;;;;;;13.80;99.90;;;;;;5052212;28;20000;-77
2023/09/20 06:28:41;;;;;;;;;;;13.90;99.90;;;;;;5052333;28;19920;-77
2023/09/20 06:31:16;;;;;;;;;;;13.90;99.90;;;;;;5054437;28;19909;-77
2023/09/20 06:33:46;;;;;;;;;;;13.90;99.90;;;;;;5053069;28;19916;-78
2023/09/20 06:36:16;;;;;;;;;;;14.00;99.90;;;;;;5050742;28;20385;-77
2023/09/20 06:38:42;;;;;;;;;;;14.00;99.90;;;;;;5052859;28;19909;-77
2023/09/20 06:41:08;;;;;;;;;;;14.00;99.90;;;;;;5053215;28;19987;-77
2023/09/20 06:43:33;;;;;;;;;;;14.10;99.90;;;;;;5054053;28;19916;-77
2023/09/20 06:46:02;;;;;;;;;;;14.20;99.90;;;;;;5053523;28;20284;-77
2023/09/20 06:48:29;;;;;;;;;;;14.30;99.90;;;;;;5053983;28;19916;-77
2023/09/20 06:50:55;;;;;;;;;;;14.40;99.90;;;;;;5051499;28;19921;-77
2023/09/20 06:53:23;;;;;;;;;;;14.50;99.90;;;;;;5051342;28;19967;-77
2023/09/20 06:55:50;;;;;;;;;;;14.50;99.90;;;;;;5045461;28;19913;-77
2023/09/20 06:58:15;;;;;;;;;;;14.60;99.90;;;;;;5054609;28;20005;-77
2023/09/20 07:00:41;;;;;;;;;;;14.70;99.90;;;;;;5051615;28;19963;-78
2023/09/20 07:03:07;;;;;;;;;;;14.90;99.90;;;;;;5053083;28;19992;-77
2023/09/20 07:05:33;;;;;;;;;;;14.90;99.90;;;;;;5054480;28;19982;-77
2023/09/20 07:07:59;;;;;;;;;;;15.00;99.90;;;;;;5057154;28;19917;-77
2023/09/20 07:10:25;;;;;;;;;;;15.10;99.90;;;;;;5051807;28;19956;-76
2023/09/20 07:12:53;;;;;;;;;;;15.20;99.90;;;;;;5057792;28;19920;-76
2023/09/20 07:15:20;;;;;;;;;;;15.30;99.90;;;;;;5055756;28;19931;-77
2023/09/20 07:17:58;;;;;;;;;;;15.40;99.90;;;;;;5057172;28;19909;-77
2023/09/20 07:20:28;;;;;;;;;;;15.50;99.90;;;;;;5055583;28;20003;-77
2023/09/20 07:22:54;;;;;;;;;;;15.60;99.90;;;;;;5055845;28;20006;-76
2023/09/20 07:25:20;;;;;;;;;;;15.70;99.90;;;;;;5055826;28;19913;-77
2023/09/20 07:27:47;;;;;;;;;;;15.90;99.90;;;;;;5054535;28;20381;-77
2023/09/20 07:30:17;;;;;;;;;;;16.00;99.90;;;;;;5055574;28;19927;-77
2023/09/20 07:32:43;;;;;;;;;;;16.10;99.90;;;;;;5049779;28;19921;-77
2023/09/20 07:35:19;;;;;;;;;;;16.20;99.90;;;;;;5055187;28;19909;-77
2023/09/20 07:37:50;;;;;;;;;;;16.30;99.90;;;;;;5053695;28;19959;-77
2023/09/20 07:40:16;;;;;;;;;;;16.40;99.90;;;;;;5050505;28;19923;-77
2023/09/20 07:42:41;;;;;;;;;;;16.50;99.90;;;;;;5056769;28;19913;-76
2023/09/20 07:45:13;;;;;;;;;;;16.60;99.90;;;;;;5057045;28;20011;-77
2023/09/20 07:47:39;;;;;;;;;;;16.60;99.90;;;;;;5055810;28;19995;-76
2023/09/20 07:50:06;;;;;;;;;;;16.60;99.90;;;;;;5071966;28;19921;-76
2023/09/20 07:52:35;;;;;;;;;;;16.70;99.90;;;;;;5056698;28;20020;-77
2023/09/20 07:55:04;;;;;;;;;;;16.80;99.90;;;;;;5055493;28;20004;-77
2023/09/20 07:57:30;;;;;;;;;;;16.70;99.90;;;;;;5054996;28;20372;-77
2023/09/20 07:59:59;;;;;;;;;;;16.80;99.90;;;;;;5052225;28;20730;-77
2023/09/20 08:02:25;;;;;;;;;;;16.80;99.90;;;;;;5055172;28;19963;-77
2023/09/20 08:04:50;;;;;;;;;;;16.90;99.90;;;;;;5056155;28;20100;-77
2023/09/20 08:07:17;;;;;;;;;;;16.90;99.90;;;;;;5055662;28;19913;-76
2023/09/20 08:09:43;;;;;;;;;;;17.10;99.90;;;;;;5056265;28;19917;-76
2023/09/20 08:12:11;;;;;;;;;;;17.20;99.90;;;;;;5088846;28;19988;-77
2023/09/20 08:14:37;;;;;;;;;;;17.30;99.90;;;;;;5054795;28;19936;-77
2023/09/20 08:19:47;;;;;;;;;;;17.60;99.90;;;;;;5056212;28;19916;-77
2023/09/20 08:22:15;;;;;;;;;;;17.70;99.90;;;;;;5056633;28;20380;-77
2023/09/20 09:00:24;;;;;;;;;;;19.70;99.90;;;;;;5050992;28;19959;-77
2023/09/20 09:02:54;;;;;;;;;;;19.90;99.90;;;;;;5053844;28;19939;-76
2023/09/20 09:05:21;;;;;;;;;;;20.20;99.90;;;;;;5054838;28;19917;-76
2023/09/20 09:07:47;;;;;;;;;;;20.40;99.90;;;;;;5055384;28;19909;-77
2023/09/20 09:10:13;;;;;;;;;;;20.60;99.90;;;;;;5050885;28;19929;-77
2023/09/20 09:12:40;;;;;;;;;;;20.80;99.90;;;;;;5053648;28;19968;-77
2023/09/20 09:15:07;;;;;;;;;;;21.10;99.90;;;;;;5051347;28;19915;-77
2023/09/20 09:17:38;;;;;;;;;;;21.00;99.90;;;;;;5054361;28;19955;-77
2023/09/20 09:20:05;;;;;;;;;;;20.90;99.90;;;;;;5054875;28;19920;-76
2023/09/20 09:22:33;;;;;;;;;;;21.00;99.90;;;;;;5055025;28;19941;-76
2023/09/20 09:24:59;;;;;;;;;;;21.10;99.90;;;;;;5070420;28;19912;-77
2023/09/20 09:27:24;;;;;;;;;;;21.10;99.90;;;;;;5052825;28;20357;-76
2023/09/20 09:29:50;;;;;;;;;;;21.30;99.90;;;;;;5054996;28;20087;-77
2023/09/20 09:32:16;;;;;;;;;;;21.40;99.90;;;;;;5055092;28;19916;-77
2023/09/20 09:34:42;;;;;;;;;;;21.30;99.90;;;;;;5053374;28;19909;-77
2023/09/20 09:37:08;;;;;;;;;;;21.50;99.90;;;;;;5054204;28;19928;-76
2023/09/20 09:39:36;;;;;;;;;;;21.60;99.90;;;;;;5070168;28;19919;-76
2023/09/20 09:42:01;;;;;;;;;;;21.70;99.90;;;;;;5053499;28;19913;-76
2023/09/20 09:44:27;;;;;;;;;;;21.90;99.90;;;;;;5053510;28;19916;-76
2023/09/20 09:46:54;;;;;;;;;;;22.00;99.90;;;;;;5054048;28;19932;-76
2023/09/20 09:49:19;;;;;;;;;;;22.20;99.90;;;;;;5051017;28;19960;-76
2023/09/20 09:51:46;;;;;;;;;;;22.40;99.90;;;;;;5052475;28;19912;-76
2023/09/20 09:54:11;;;;;;;;;;;22.70;99.90;;;;;;5054352;28;19917;-76
2023/09/20 09:56:37;;;;;;;;;;;22.70;99.90;;;;;;5050269;28;19913;-76
2023/09/20 09:59:04;;;;;;;;;;;22.90;99.90;;;;;;5054178;28;19954;-76
2023/09/20 10:01:29;;;;;;;;;;;23.10;99.90;;;;;;5051596;28;19909;-76
2023/09/20 10:03:59;;;;;;;;;;;23.20;99.90;;;;;;5054746;28;19913;-76
2023/09/20 10:06:27;;;;;;;;;;;23.30;99.90;;;;;;5050134;28;20377;-77
2023/09/20 10:08:54;;;;;;;;;;;23.60;99.90;;;;;;5053851;28;19917;-75
2023/09/20 10:11:23;;;;;;;;;;;23.70;99.90;;;;;;5050893;28;19915;-75
2023/09/20 10:13:50;;;;;;;;;;;23.70;99.90;;;;;;5049655;28;19912;-77
2023/09/20 10:16:18;;;;;;;;;;;23.90;99.90;;;;;;5069551;28;20008;-74
2023/09/20 10:18:53;;;;;;;;;;;23.80;99.90;;;;;;5056859;28;19909;-76
2023/09/20 10:21:24;;;;;;;;;;;23.80;99.90;;;;;;5050571;28;19908;-76
2023/09/20 10:23:54;;;;;;;;;;;23.60;99.90;;;;;;5054647;28;19908;-74
2023/09/20 10:26:20;;;;;;;;;;;23.50;99.90;;;;;;5050832;28;19955;-74
2023/09/20 10:28:47;;;;;;;;;;;23.50;99.90;;;;;;5086592;28;19917;-76
2023/09/20 10:31:16;;;;;;;;;;;23.20;99.90;;;;;;5054425;28;19920;-76
2023/09/20 10:33:45;;;;;;;;;;;23.30;99.90;;;;;;5053164;28;20775;-74
2023/09/20 10:36:18;;;;;;;;;;;23.20;99.90;;;;;;5069216;28;19908;-75
2023/09/20 10:38:45;;;;;;;;;;;23.00;99.90;;;;;;5054811;28;20300;-73
2023/09/20 10:41:12;;;;;;;;;;;23.10;99.90;;;;;;5058192;28;19944;-74
2023/09/20 10:43:38;;;;;;;;;;;23.10;99.90;;;;;;5056762;28;19908;-74
2023/09/20 10:46:06;;;;;;;;;;;23.10;99.90;;;;;;5057806;28;19919;-74
2023/09/20 10:48:32;;;;;;;;;;;23.30;99.90;;;;;;5056695;28;20493;-75
2023/09/20 10:50:58;;;;;;;;;;;23.30;99.90;;;;;;5057050;28;20058;-75
2023/09/20 10:53:45;;;;;;;;;;;23.20;99.90;;;;;;5056547;28;19929;-76
2023/09/20 10:56:30;;;;;;;;;;;23.30;99.90;;;;;;5055965;28;20376;-76
2023/09/20 10:58:59;;;;;;;;;;;23.30;99.90;;;;;;5080324;28;19920;-76
2023/09/20 11:01:25;;;;;;;;;;;23.30;99.90;;;;;;5055669;28;19908;-77
2023/09/20 11:03:51;;;;;;;;;;;23.40;99.90;;;;;;5056268;28;19916;-76
2023/09/20 11:06:16;;;;;;;;;;;23.30;99.90;;;;;;5054353;28;20361;-76
2023/09/20 11:08:43;;;;;;;;;;;23.30;99.90;;;;;;5054090;28;20272;-76
2023/09/20 11:11:14;;;;;;;;;;;23.30;99.90;;;;;;5055719;28;19912;-75
2023/09/20 11:13:42;;;;;;;;;;;23.40;99.90;;;;;;5068781;28;19909;-77
2023/09/20 11:16:08;;;;;;;;;;;23.50;99.90;;;;;;5057215;28;20036;-76
2023/09/20 11:18:36;;;;;;;;;;;23.60;99.90;;;;;;5054882;28;19913;-76
2023/09/20 11:21:03;;;;;;;;;;;23.60;99.90;;;;;;5056294;28;20001;-76
2023/09/20 11:23:30;;;;;;;;;;;23.60;99.90;;;;;;5070956;28;19912;-76
2023/09/20 11:25:58;;;;;;;;;;;23.60;99.90;;;;;;5056834;28;20296;-75
2023/09/20 11:28:24;;;;;;;;;;;23.60;99.90;;;;;;5056095;28;19925;-76
2023/09/20 11:30:51;;;;;;;;;;;23.70;99.90;;;;;;5056362;28;19912;-75
2023/09/20 11:33:29;;;;;;;;;;;23.70;99.90;;;;;;5055301;28;19909;-75
2023/09/20 11:35:55;;;;;;;;;;;23.80;99.90;;;;;;5068825;28;20007;-75
2023/09/20 11:38:21;;;;;;;;;;;23.70;99.90;;;;;;5057212;28;19968;-77
2023/09/20 11:40:47;;;;;;;;;;;23.80;99.90;;;;;;5072554;28;19909;-74
2023/09/20 11:43:17;;;;;;;;;;;23.90;99.90;;;;;;5054691;28;20042;-76
2023/09/20 11:45:46;;;;;;;;;;;24.00;99.90;;;;;;5055378;28;19908;-75
2023/09/20 11:48:15;;;;;;;;;;;24.00;99.90;;;;;;5055800;28;19909;-74
2023/09/20 11:50:44;;;;;;;;;;;24.00;99.90;;;;;;5054789;28;19925;-75
2023/09/20 11:53:14;;;;;;;;;;;24.00;99.90;;;;;;5056258;28;19967;-75
2023/09/20 11:55:43;;;;;;;;;;;24.10;99.90;;;;;;5055689;28;19999;-76
2023/09/20 11:58:14;;;;;;;;;;;24.00;99.90;;;;;;5056025;28;20688;-75
2023/09/20 12:00:43;;;;;;;;;;;24.10;99.90;;;;;;5057586;28;20212;-75
2023/09/20 12:03:08;;;;;;;;;;;24.30;99.90;;;;;;5056652;28;19944;-75
2023/09/20 12:05:34;;;;;;;;;;;24.40;99.90;;;;;;5069722;28;20585;-76
2023/09/20 12:08:01;;;;;;;;;;;24.50;99.90;;;;;;5054588;28;20406;-76
2023/09/20 12:10:30;;;;;;;;;;;24.40;99.90;;;;;;5057691;28;19913;-76
2023/09/20 12:12:56;;;;;;;;;;;24.40;99.90;;;;;;5057261;28;20446;-76
2023/09/20 12:15:23;;;;;;;;;;;24.50;99.90;;;;;;5051970;28;20000;-75
2023/09/20 12:17:55;;;;;;;;;;;24.70;99.90;;;;;;5065101;28;19920;-77
2023/09/20 12:20:22;;;;;;;;;;;24.70;99.90;;;;;;5054892;28;19959;-76
2023/09/20 12:22:47;;;;;;;;;;;24.80;99.90;;;;;;5057251;28;19995;-76
2023/09/20 12:25:15;;;;;;;;;;;24.80;99.90;;;;;;5057425;28;19955;-75
2023/09/20 12:27:42;;;;;;;;;;;24.90;99.90;;;;;;5056169;28;19924;-75
2023/09/20 12:30:08;;;;;;;;;;;24.80;99.90;;;;;;5057212;28;19913;-76
2023/09/20 12:32:34;;;;;;;;;;;24.90;99.90;;;;;;5057328;28;20015;-75
2023/09/20 12:35:00;;;;;;;;;;;24.90;99.90;;;;;;5055394;28;19951;-77
2023/09/20 12:37:26;;;;;;;;;;;24.80;99.90;;;;;;5057653;28;19912;-74
2023/09/20 12:39:52;;;;;;;;;;;24.70;99.90;;;;;;5057488;28;19909;-75
2023/09/20 12:42:18;;;;;;;;;;;24.70;99.90;;;;;;5073099;28;19909;-76
2023/09/20 12:44:44;;;;;;;;;;;24.60;99.90;;;;;;5055654;28;19909;-75
2023/09/20 12:47:09;;;;;;;;;;;24.60;99.90;;;;;;5057221;28;19932;-76
2023/09/20 12:49:38;;;;;;;;;;;24.70;99.90;;;;;;5056730;28;19912;-78
2023/09/20 12:52:04;;;;;;;;;;;24.70;99.90;;;;;;5056941;28;20274;-77
2023/09/20 12:54:30;;;;;;;;;;;24.70;99.90;;;;;;5056854;28;19975;-76
2023/09/20 12:56:59;;;;;;;;;;;24.80;99.90;;;;;;5056991;28;20687;-75
2023/09/20 12:59:27;;;;;;;;;;;24.90;99.90;;;;;;5054895;28;19909;-76
2023/09/20 13:01:59;;;;;;;;;;;24.90;99.90;;;;;;5055666;28;19968;-76
2023/09/20 13:04:24;;;;;;;;;;;24.90;99.90;;;;;;5056696;28;20055;-76
2023/09/20 13:06:50;;;;;;;;;;;24.90;99.90;;;;;;5056648;28;19951;-78
2023/09/20 13:09:16;;;;;;;;;;;25.00;99.90;;;;;;5056571;28;19913;-77
2023/09/20 13:11:44;;;;;;;;;;;24.90;99.90;;;;;;5056691;28;19916;-76
2023/09/20 13:14:09;;;;;;;;;;;25.00;99.90;;;;;;5055232;28;19909;-77
2023/09/20 13:16:35;;;;;;;;;;;25.10;99.90;;;;;;5056747;28;19908;-76
2023/09/20 13:19:02;;;;;;;;;;;25.00;99.90;;;;;;5054660;28;19908;-76
2023/09/20 13:21:28;;;;;;;;;;;25.00;99.90;;;;;;5056338;28;19919;-76
2023/09/20 13:23:54;;;;;;;;;;;25.00;99.90;;;;;;5056299;28;19962;-76
2023/09/20 13:26:20;;;;;;;;;;;25.00;99.90;;;;;;5071663;28;19917;-77
2023/09/20 13:28:45;;;;;;;;;;;25.10;99.90;;;;;;5088655;28;20306;-77
2023/09/20 13:31:15;;;;;;;;;;;25.00;99.90;;;;;;5055964;28;21300;-76
2023/09/20 13:33:40;;;;;;;;;;;24.90;99.90;;;;;;5056470;28;20003;-76
2023/09/20 13:36:06;;;;;;;;;;;24.90;99.90;;;;;;5071419;28;19951;-78
2023/09/20 13:38:32;;;;;;;;;;;24.90;99.90;;;;;;5056228;28;19915;-77
2023/09/20 13:40:58;;;;;;;;;;;24.90;99.90;;;;;;5055956;28;20400;-78
2023/09/20 13:43:23;;;;;;;;;;;25.00;99.90;;;;;;5055890;28;19908;-76
2023/09/20 13:45:51;;;;;;;;;;;25.10;99.90;;;;;;5088160;28;19916;-76
2023/09/20 13:48:17;;;;;;;;;;;25.20;99.90;;;;;;5045204;28;19908;-76
2023/09/20 13:50:42;;;;;;;;;;;25.20;99.90;;;;;;5055319;28;19923;-76
2023/09/20 13:53:08;;;;;;;;;;;25.10;99.90;;;;;;5088097;28;19958;-76
2023/09/20 13:55:34;;;;;;;;;;;25.10;99.90;;;;;;5055722;28;19909;-76
2023/09/20 13:58:01;;;;;;;;;;;25.10;99.90;;;;;;5055500;28;19959;-77
2023/09/20 14:00:28;;;;;;;;;;;25.10;99.90;;;;;;5070973;28;19909;-76
2023/09/20 14:02:54;;;;;;;;;;;25.30;99.90;;;;;;5044889;28;19941;-77
2023/09/20 14:05:20;;;;;;;;;;;25.20;99.90;;;;;;5070728;28;19909;-76
2023/09/20 14:07:46;;;;;;;;;;;25.10;99.90;;;;;;5044122;28;19931;-77
2023/09/20 14:10:12;;;;;;;;;;;25.30;99.90;;;;;;5087735;28;19921;-76
2023/09/20 14:12:39;;;;;;;;;;;25.20;99.90;;;;;;5055582;28;19909;-76
2023/09/20 14:15:10;;;;;;;;;;;25.30;99.90;;;;;;5059511;28;20427;-76
2023/09/20 14:17:36;;;;;;;;;;;25.30;99.90;;;;;;5050339;28;19962;-77
2023/09/20 14:20:09;;;;;;;;;;;25.30;99.90;;;;;;5085264;28;20008;-76
2023/09/20 14:22:39;;;;;;;;;;;25.30;99.90;;;;;;5080802;28;20408;-78
2023/09/20 14:25:06;;;;;;;;;;;25.50;99.90;;;;;;5052368;28;19921;-77
2023/09/20 14:27:33;;;;;;;;;;;25.60;99.90;;;;;;5066135;28;19932;-78
2023/09/20 14:29:59;;;;;;;;;;;25.60;99.90;;;;;;5054553;28;20671;-77
2023/09/20 14:32:25;;;;;;;;;;;25.60;99.90;;;;;;5057831;28;19986;-77
2023/09/20 14:34:50;;;;;;;;;;;25.60;99.90;;;;;;5056973;28;19916;-77
2023/09/20 14:37:16;;;;;;;;;;;25.60;99.90;;;;;;5055313;28;19909;-77
2023/09/20 14:39:41;;;;;;;;;;;25.60;99.90;;;;;;5057812;28;19917;-77
2023/09/20 14:42:08;;;;;;;;;;;25.70;99.90;;;;;;5058315;28;19916;-77
2023/09/20 14:44:34;;;;;;;;;;;25.60;99.90;;;;;;5056885;28;19909;-77
2023/09/20 14:47:00;;;;;;;;;;;25.70;99.90;;;;;;5058043;28;19994;-78
2023/09/20 14:49:26;;;;;;;;;;;25.80;99.90;;;;;;5057252;28;19917;-78
2023/09/20 14:51:53;;;;;;;;;;;26.00;99.90;;;;;;5090204;28;19916;-78
2023/09/20 14:54:22;;;;;;;;;;;26.00;99.90;;;;;;5056686;28;19909;-79